RPLCRPLL

Guest
Details From RPLC - Clark Intl
To RPLL - Manille Ninoy Aquino Intl
Flight Number -
Tags Generated
Created
Modified
Stats Distance 47 nm / 87 km
Max Altitude 0 ft / 0 m
Waypoints 2
Social Downloads 15
Likes 0
Share VATSIM

Download

Looking for another format? Having issues loading an existing format? Contact us
Advertisement - Login to hide

Notes

Generated

Route

RPLC RPLL

ID Type Via Altitude Latitude Longitude Leg Dist Tot Dist Heading (true) Name
O RPLC APT - 0 ft / 0 m 15.17437˚ 120.55784˚ - 0 nm - -
O RPLL APT - 0 ft / 0 m 14.52421˚ 121.00346˚ 46 nm 46 nm 146° / 147° -

Altitude Profile

Advertisement - Login to hide

RPLC

Details ICAO RPLC (CRK)
Name CLARK INTL
Region Philippines
Timezone Asia/Manila (UTC+8.0)
Stats Elevation 484 ft / 148 m (AMSL)
Location 15.185989° 120.560323°
Runways 2
Magnetic Variation 2.262° W

METAR

RPLC 131100Z 09002KT 9999 FEW020 BKN100 BKN300 28/21 Q1011 NOSIG RMK A2985

Decode

TAF

Not found

Departure Runways

ID Width Length Bearing (true) Bearing (mag) Surface Threshold Offset Overrun Length
02L 148 ft / 45 m 10,568 ft / 3,221 m 20.92° 23.18° Concrete 0 ft / 0 m 984 ft / 300 m
02R 197 ft / 60 m 10,547 ft / 3,215 m 20.93° 23.19° Concrete 0 ft / 0 m 984 ft / 300 m
20L 197 ft / 60 m 10,547 ft / 3,215 m 200.94° 203.20° Concrete 0 ft / 0 m 984 ft / 300 m
20R 148 ft / 45 m 10,568 ft / 3,221 m 200.93° 203.19° Concrete 0 ft / 0 m 984 ft / 300 m

RPLL

Details ICAO RPLL (MNL)
Name Ninoy Aquino International Airport
Region Philippines
Timezone Asia/Manila (UTC+8.0)
Stats Elevation 75 ft / 23 m (AMSL)
Location 14.511513° 121.012718°
Runways 2
Magnetic Variation 2.157° W

METAR

RPLL 131100Z 08007KT 9999 FEW023 BKN100 28/22 Q1010 NOSIG RMK A2983

Decode

TAF

TAF RPLL 130500Z 1306/1412 08008KT 9999 FEW023 BKN100 TX30/1306Z TN25/1321Z TEMPO 1306/1312 11010KT 9000 -SHRA SCT023 OVC100 TEMPO 1312/1318 09006KT 9000 -SHRA SCT022 OVC090

Decode

Destination Runways

ID Width Length Bearing (true) Bearing (mag) Surface Threshold Offset Overrun Length
06 211 ft / 64 m 11,788 ft / 3,593 m 60.18° 62.34° Asphalt 587 ft / 179 m 0 ft / 0 m
13 151 ft / 46 m 5,850 ft / 1,783 m 134.93° 137.09° Asphalt 0 ft / 0 m 696 ft / 212 m
24 211 ft / 64 m 11,788 ft / 3,593 m 240.19° 242.35° Asphalt 0 ft / 0 m 331 ft / 101 m
31 151 ft / 46 m 5,850 ft / 1,783 m 314.93° 317.09° Asphalt 0 ft / 0 m 459 ft / 140 m

Approach Navaids

Runway Type Ident Frequency Range Bearing (true) Bearing (mag) Slope Elevation
06 Localiser IML 109.10 MHz 18 nm / 33 km 60.15° 62.31° - 21 ft / 6 m (AMSL)
06 Glidescope IML 109.10 MHz 10 nm / 19 km 60.19° 62.34° 3.01° 50 ft / 15 m (AMSL)
06 DME IML 109.10 MHz 18 nm / 33 km - - - 50 ft / 15 m (AMSL)
24 Localiser IMA 109.90 MHz 18 nm / 33 km 240.24° 242.40° - 71 ft / 22 m (AMSL)
24 Glidescope IMA 109.90 MHz 10 nm / 19 km 240.19° 242.34° 3.06° 50 ft / 15 m (AMSL)
24 DME IMA 109.90 MHz 18 nm / 33 km - - - 50 ft / 15 m (AMSL)

Popular Alternatives